createdAt,value
2022-09-22T00:01:40.298Z,-25.7
2022-09-22T00:03:42.074Z,-25.7
2022-09-22T00:05:43.198Z,-25.7
2022-09-22T00:07:44.402Z,-25.7
2022-09-22T00:09:45.787Z,-25.5
2022-09-22T00:11:47.715Z,-25.4
2022-09-22T00:13:49.505Z,-25.6
2022-09-22T00:15:50.461Z,-25.6
2022-09-22T00:17:52.438Z,-25.4
2022-09-22T00:19:54.245Z,-25.6
2022-09-22T00:21:56.219Z,-25.7
2022-09-22T00:23:57.460Z,-25.6
2022-09-22T00:25:58.638Z,-25.8
2022-09-22T00:28:00.521Z,-25.8
2022-09-22T00:30:01.787Z,-25.8
2022-09-22T00:32:07.083Z,-25.6
2022-09-22T00:34:05.233Z,-25.6
2022-09-22T00:36:06.282Z,-25.7
2022-09-22T00:38:07.708Z,-25.5
2022-09-22T00:40:09.042Z,-25.7
2022-09-22T00:42:10.671Z,-25.5
2022-09-22T00:44:12.269Z,-25.7
2022-09-22T00:50:17.175Z,-25.8
2022-09-22T00:52:18.265Z,-25.5
2022-09-22T00:54:19.596Z,-25.7
2022-09-22T00:56:20.652Z,-25.9
2022-09-22T00:58:22.474Z,-25.6
2022-09-22T01:00:24.429Z,-25.6
2022-09-22T01:02:26.295Z,-25.6
2022-09-22T01:04:27.648Z,-25.7
2022-09-22T01:06:29.475Z,-25.6
2022-09-22T01:08:31.137Z,-25.6
2022-09-22T01:10:32.968Z,-25.8
2022-09-22T01:12:34.566Z,-25.7
2022-09-22T01:14:35.884Z,-25.6
2022-09-22T01:16:37.323Z,-25.9
2022-09-22T01:18:38.578Z,-25.9
2022-09-22T01:20:40.153Z,-25.6
2022-09-22T01:22:41.649Z,-25.5
2022-09-22T01:26:44.762Z,-25.8
2022-09-22T01:28:46.293Z,-25.9
2022-09-22T01:30:47.465Z,-25.7
2022-09-22T01:32:48.883Z,-25.5
2022-09-22T01:36:51.963Z,-25.6
2022-09-22T01:38:53.810Z,-25.7
2022-09-22T01:40:55.720Z,-25.8
2022-09-22T01:42:56.871Z,-25.7
2022-09-22T01:44:57.908Z,-25.9
2022-09-22T01:46:59.058Z,-25.7
2022-09-22T01:49:00.649Z,-25.7
2022-09-22T01:51:01.994Z,-25.7
2022-09-22T01:53:03.351Z,-25.7
2022-09-22T01:55:04.734Z,-25.9
2022-09-22T01:57:06.351Z,-25.8
2022-09-22T01:59:07.550Z,-25.5
2022-09-22T02:01:12.243Z,-25.7
2022-09-22T02:05:11.665Z,-25.7
2022-09-22T02:09:15.023Z,-25.5
2022-09-22T02:11:16.379Z,-25.7
2022-09-22T02:13:18.133Z,-25.6
2022-09-22T02:15:19.591Z,-25.5
2022-09-22T02:21:23.920Z,-25.6
2022-09-22T02:23:25.681Z,-25.7
2022-09-22T02:25:27.151Z,-25.8
2022-09-22T02:27:28.442Z,-25.8
2022-09-22T02:29:29.495Z,-25.7
2022-09-22T02:31:31.026Z,-25.6
2022-09-22T02:33:36.126Z,-25.6
2022-09-22T02:35:34.414Z,-25.6
2022-09-22T02:37:35.800Z,-25.6
2022-09-22T02:39:37.330Z,-25.7
2022-09-22T02:41:38.588Z,-25.8
2022-09-22T02:43:40.131Z,-25.7
2022-09-22T02:45:42.085Z,-25.8
2022-09-22T02:47:43.867Z,-25.7
2022-09-22T02:51:47.192Z,-25.7
2022-09-22T02:53:48.233Z,-25.7
2022-09-22T02:55:49.336Z,-25.4
2022-09-22T02:57:51.048Z,-25.5
2022-09-22T03:03:56.177Z,-25.6
2022-09-22T03:05:57.947Z,-25.5
2022-09-22T03:07:59.674Z,-25.8
2022-09-22T03:10:01.497Z,-25.6
2022-09-22T03:12:03.174Z,-25.6
2022-09-22T03:14:05.032Z,-25.8
2022-09-22T03:16:06.337Z,-25.7
2022-09-22T03:18:08.234Z,-25.5
2022-09-22T03:20:10.122Z,-25.6
2022-09-22T03:20:54.045Z,-25.9
2022-09-22T03:24:57.145Z,-25.5
2022-09-22T03:29:01.279Z,-25.8
2022-09-22T03:31:02.723Z,-25.6
2022-09-22T03:33:03.953Z,-25.4
2022-09-22T03:35:05.699Z,-25.7
2022-09-22T03:41:10.462Z,-25.6
2022-09-22T03:43:15.970Z,-25.7
2022-09-22T03:45:13.181Z,-25.6
2022-09-22T03:47:14.941Z,-25.4
2022-09-22T03:49:16.174Z,-25.8
2022-09-22T03:51:17.220Z,-25.7
2022-09-22T03:53:18.671Z,-25.5
2022-09-22T03:55:20.278Z,-25.8
2022-09-22T03:57:22.151Z,-25.6
2022-09-22T03:59:23.335Z,-25.7
2022-09-22T04:01:24.472Z,-25.9
2022-09-22T04:03:25.945Z,-25.5
2022-09-22T04:05:27.944Z,-25.8
2022-09-22T04:07:29.016Z,-25.8
2022-09-22T04:09:30.845Z,-25.9
2022-09-22T04:11:31.901Z,-25.6
2022-09-22T04:13:33.455Z,-25.7
2022-09-22T04:15:35.240Z,-25.9
2022-09-22T04:17:36.787Z,-25.7
2022-09-22T04:19:38.295Z,-25.6
2022-09-22T04:21:39.746Z,-25.8
2022-09-22T04:23:41.413Z,-25.8
2022-09-22T04:25:43.294Z,-25.7
2022-09-22T04:27:44.572Z,-25.7
2022-09-22T04:29:46.365Z,-25.5
2022-09-22T04:31:47.652Z,-25.6
2022-09-22T04:33:48.936Z,-25.8
2022-09-22T04:39:53.695Z,-25.6
2022-09-22T04:41:55.660Z,-25.5
2022-09-22T04:43:56.871Z,-25.7
2022-09-22T04:45:58.870Z,-25.7
2022-09-22T04:48:00.833Z,-25.7
2022-09-22T04:50:02.573Z,-25.7
2022-09-22T04:52:03.778Z,-25.7
2022-09-22T04:54:05.787Z,-25.7
2022-09-22T04:56:06.892Z,-25.7
2022-09-22T05:00:09.675Z,-25.6
2022-09-22T05:02:11.084Z,-25.7
2022-09-22T05:04:12.824Z,-25.7
2022-09-22T05:06:14.794Z,-25.8
2022-09-22T05:08:16.414Z,-25.8
2022-09-22T05:10:17.578Z,-25.8
2022-09-22T05:12:19.455Z,-25.8
2022-09-22T05:14:22.873Z,-25.7
2022-09-22T05:16:22.070Z,-25.8
2022-09-22T05:22:26.341Z,-25.5
2022-09-22T05:24:27.620Z,-25.8
2022-09-22T05:26:29.110Z,-25.8
2022-09-22T05:28:30.859Z,-26
2022-09-22T05:30:32.546Z,-25.5
2022-09-22T05:32:34.539Z,-25.6
2022-09-22T05:34:36.508Z,-25.9
2022-09-22T05:36:38.024Z,-25.5
2022-09-22T05:38:39.679Z,-25.8
2022-09-22T05:42:43.557Z,-25.7
2022-09-22T05:44:44.828Z,-25.4
2022-09-22T05:46:46.214Z,-25.7
2022-09-22T05:48:47.985Z,-25.8
2022-09-22T05:50:49.605Z,-25.6
2022-09-22T05:52:51.140Z,-25.8
2022-09-22T05:54:52.491Z,-25.6
2022-09-22T05:56:53.973Z,-25.6
2022-09-22T05:58:55.179Z,-25.7
2022-09-22T06:04:58.970Z,-25.2
2022-09-22T06:07:00.603Z,-24.8
2022-09-22T06:09:02.216Z,-24.6
2022-09-22T06:11:03.981Z,-23.2
2022-09-22T06:13:05.102Z,-22.4
2022-09-22T06:15:06.140Z,-22.4
2022-09-22T06:19:09.035Z,-7.4
2022-09-22T06:21:11.261Z,-5.5
2022-09-22T06:25:14.008Z,-6.3
2022-09-22T06:29:17.061Z,-7.6
2022-09-22T06:31:18.781Z,-8.7
2022-09-22T06:35:21.842Z,-5.7
2022-09-22T06:37:23.581Z,1.8
2022-09-22T06:39:25.169Z,4
2022-09-22T06:41:26.986Z,-1.9
2022-09-22T06:45:29.891Z,-4.1
2022-09-22T06:47:31.229Z,3.4
2022-09-22T06:49:32.337Z,5.1
2022-09-22T06:51:34.227Z,3.8
2022-09-22T06:55:36.804Z,14.7
2022-09-22T06:57:38.720Z,14.8
2022-09-22T07:01:42.032Z,17
2022-09-22T07:03:43.387Z,27.8
2022-09-22T07:05:44.802Z,19
2022-09-22T07:07:45.916Z,25.4
2022-09-22T07:13:50.458Z,23.9
2022-09-22T07:15:51.550Z,28.6
2022-09-22T07:17:52.460Z,31.4
2022-09-22T07:19:53.947Z,43.5
2022-09-22T07:21:55.228Z,74
2022-09-22T07:23:56.498Z,72.1
2022-09-22T07:25:58.635Z,71.6
2022-09-22T07:28:00.306Z,70.6
2022-09-22T07:30:01.274Z,69.6
2022-09-22T07:32:02.410Z,69
2022-09-22T07:36:04.286Z,66.5
2022-09-22T07:38:05.446Z,64.4
2022-09-22T07:40:07.218Z,64.19
2022-09-22T07:42:08.663Z,62.7
2022-09-22T07:44:09.890Z,61.7
2022-09-22T07:46:11.847Z,59.8
2022-09-22T07:48:13.445Z,57.8
2022-09-22T07:50:15.433Z,56.9
2022-09-22T07:52:16.157Z,55.8
2022-09-22T07:54:17.687Z,54.6
2022-09-22T07:56:19.150Z,52.5
2022-09-22T08:00:22.538Z,49.8
2022-09-22T08:02:24.386Z,48.2
2022-09-22T08:04:27.126Z,46.9
2022-09-22T08:08:29.759Z,42.9
2022-09-22T08:10:30.670Z,41.5
2022-09-22T08:12:31.918Z,40.4
2022-09-22T08:14:33.575Z,39
2022-09-22T08:16:34.498Z,38.09
2022-09-22T08:18:35.839Z,37.2
2022-09-22T08:20:38.943Z,35.09
2022-09-22T08:22:38.658Z,33.9
2022-09-22T08:24:39.941Z,33.2
2022-09-22T08:26:44.754Z,31.5
2022-09-22T08:28:43.271Z,30.8
2022-09-22T08:34:47.243Z,27.9
2022-09-22T08:36:48.934Z,27.2
2022-09-22T08:38:49.702Z,25.5
2022-09-22T08:40:51.610Z,23.9
2022-09-22T08:42:52.912Z,23.7
2022-09-22T08:44:54.414Z,22.3
2022-09-22T08:46:55.772Z,20.7
2022-09-22T08:48:57.436Z,21.7
2022-09-22T08:50:59.165Z,19.79
2022-09-22T08:55:02.887Z,16.5
2022-09-22T08:57:04.291Z,15.7
2022-09-22T08:59:05.927Z,15.6
2022-09-22T09:01:07.366Z,13.7
2022-09-22T09:03:08.394Z,13.1
2022-09-22T09:05:10.172Z,14.4
2022-09-22T09:07:11.442Z,12.4
2022-09-22T09:09:13.196Z,12.1
2022-09-22T09:11:14.329Z,12.2
2022-09-22T09:13:15.383Z,11.1
2022-09-22T09:15:16.768Z,8.6
2022-09-22T09:17:18.257Z,9
2022-09-22T09:19:19.213Z,9.39
2022-09-22T09:21:20.849Z,7
2022-09-22T09:25:24.839Z,-25.9
2022-09-22T09:27:25.513Z,-26
2022-09-22T09:29:26.907Z,-25.9
2022-09-22T09:31:27.953Z,-26.1
2022-09-22T09:33:29.000Z,-25.9
2022-09-22T09:35:30.220Z,-25.8
2022-09-22T09:37:31.320Z,-25.8
2022-09-22T09:41:33.818Z,-25.8
2022-09-22T09:43:35.175Z,-25.7
2022-09-22T09:45:36.310Z,-25.8
2022-09-22T09:47:37.359Z,-25.8
2022-09-22T09:51:40.370Z,-25.7
2022-09-22T09:53:41.611Z,-25.7
2022-09-22T09:55:42.993Z,-26
2022-09-22T09:57:44.620Z,-26.2
2022-09-22T10:01:47.251Z,-26.2
2022-09-22T10:03:48.945Z,-26.2
2022-09-22T10:05:49.896Z,-26.3
2022-09-22T10:06:33.602Z,-25.7
2022-09-22T10:12:37.653Z,-26.3
2022-09-22T10:14:38.978Z,-26.2
2022-09-22T10:16:39.957Z,-26
2022-09-22T10:18:40.887Z,-26.2
2022-09-22T10:20:42.182Z,-26
2022-09-22T10:22:43.635Z,-26.2
2022-09-22T10:24:45.443Z,-26.3
2022-09-22T10:28:48.656Z,-25.5
2022-09-22T10:30:49.742Z,-25.8
2022-09-22T10:32:51.175Z,-26
2022-09-22T10:34:52.273Z,-26
2022-09-22T10:36:53.360Z,-26.1
2022-09-22T10:38:57.261Z,-25.9
2022-09-22T10:40:55.790Z,-25.7
2022-09-22T10:42:57.570Z,-25.9
2022-09-22T10:44:59.020Z,-25.9
2022-09-22T10:47:00.569Z,-25.9
2022-09-22T10:49:01.847Z,-26
2022-09-22T10:53:04.296Z,-25.8
2022-09-22T10:55:05.715Z,-25.8
2022-09-22T10:57:06.700Z,-25.8
2022-09-22T10:59:07.783Z,-25.9
2022-09-22T11:01:08.861Z,-25.9
2022-09-22T11:03:10.377Z,-25.9
2022-09-22T11:07:14.509Z,-25.9
2022-09-22T11:09:14.571Z,-25.9
2022-09-22T11:11:16.030Z,-26
2022-09-22T11:13:17.661Z,-25.7
2022-09-22T11:15:19.321Z,-26.1
2022-09-22T11:17:21.102Z,-26
2022-09-22T11:19:22.232Z,-25.9
2022-09-22T11:21:23.969Z,-25.8
2022-09-22T11:23:25.030Z,-25.6
2022-09-22T11:25:26.833Z,-25.9
2022-09-22T11:27:27.873Z,-26
2022-09-22T11:29:28.889Z,-26
2022-09-22T11:31:30.575Z,-26.2
2022-09-22T11:33:32.291Z,-25.7
2022-09-22T11:35:33.985Z,-25.7
2022-09-22T11:39:36.404Z,-25.7
2022-09-22T11:41:38.085Z,-25.7
2022-09-22T11:43:38.990Z,-26.1
2022-09-22T11:45:40.979Z,-26
2022-09-22T11:49:42.962Z,-25.8
2022-09-22T11:51:44.366Z,-25.7
2022-09-22T11:53:45.864Z,-25.8
2022-09-22T11:55:46.722Z,-26.1
2022-09-22T11:57:47.915Z,-26
2022-09-22T11:59:49.462Z,-25.9
2022-09-22T12:01:50.861Z,-26
2022-09-22T12:03:51.978Z,-25.7
2022-09-22T12:05:53.185Z,-25.9
2022-09-22T12:09:55.643Z,-26
2022-09-22T12:11:56.847Z,-25.8
2022-09-22T12:13:58.459Z,-26.1
2022-09-22T12:16:00.299Z,-25.7
2022-09-22T12:18:01.229Z,-26.1
2022-09-22T12:20:02.904Z,-25.8
2022-09-22T12:22:04.610Z,-25.7
2022-09-22T12:28:09.483Z,-25.8
2022-09-22T12:30:13.623Z,-25.8
2022-09-22T12:36:14.657Z,-25.9
2022-09-22T12:38:15.810Z,-25.5
2022-09-22T12:40:17.149Z,-25.9
2022-09-22T12:42:18.238Z,-25.8
2022-09-22T12:44:19.471Z,-25.8
2022-09-22T12:46:21.204Z,-25.8
2022-09-22T12:48:22.167Z,-25.9
2022-09-22T12:54:25.571Z,-26
2022-09-22T12:56:27.364Z,-25.9
2022-09-22T12:58:28.725Z,-25.9
2022-09-22T13:00:32.072Z,-26
2022-09-22T13:02:31.359Z,-25.7
2022-09-22T13:04:32.623Z,-25.8
2022-09-22T13:06:34.092Z,-25.8
2022-09-22T13:08:35.145Z,-25.8
2022-09-22T13:10:36.841Z,-25.6
2022-09-22T13:12:38.337Z,-25.7
2022-09-22T13:14:39.223Z,-25.6
2022-09-22T13:16:40.410Z,-25.7
2022-09-22T13:18:41.580Z,-26
2022-09-22T13:20:43.086Z,-25.9
2022-09-22T13:22:44.587Z,-25.9
2022-09-22T13:24:45.746Z,-25.8
2022-09-22T13:26:47.267Z,-25.8
2022-09-22T13:30:49.917Z,-25.6
2022-09-22T13:32:51.483Z,-25.8
2022-09-22T13:34:53.152Z,-25.8
2022-09-22T13:36:54.080Z,-25.8
2022-09-22T13:38:55.169Z,-25.9
2022-09-22T13:40:56.572Z,-25.8
2022-09-22T13:42:57.802Z,-25.8
2022-09-22T13:44:58.891Z,-26
2022-09-22T13:47:00.177Z,-25.8
2022-09-22T13:49:01.512Z,-25.9
2022-09-22T13:51:03.291Z,-25.9
2022-09-22T13:53:04.853Z,-25.9
2022-09-22T13:55:06.633Z,-25.8
2022-09-22T13:57:08.100Z,-25.9
2022-09-22T13:59:09.646Z,61.3
2022-09-22T14:01:14.006Z,60.5
2022-09-22T14:03:12.362Z,61.9
2022-09-22T14:07:15.812Z,59.1
2022-09-22T14:09:17.605Z,57.3
2022-09-22T14:13:20.375Z,52.1
2022-09-22T14:15:22.150Z,46.9
2022-09-22T14:17:23.059Z,43.5
2022-09-22T14:19:24.438Z,38.7
2022-09-22T14:23:26.573Z,35.09
2022-09-22T14:25:27.885Z,32.09
2022-09-22T14:27:29.088Z,27.6
2022-09-22T14:29:30.199Z,29
2022-09-22T14:33:32.845Z,24.5
2022-09-22T14:35:34.593Z,23.4
2022-09-22T14:37:36.101Z,23.2
2022-09-22T14:39:37.102Z,21.3
2022-09-22T14:41:38.740Z,20.29
2022-09-22T14:45:41.155Z,17.2
2022-09-22T14:47:42.149Z,15.8
2022-09-22T14:49:43.168Z,15.9
2022-09-22T14:51:44.203Z,12.8
2022-09-22T14:53:45.938Z,14.7
2022-09-22T14:55:47.679Z,11.9
2022-09-22T14:57:49.065Z,11.6
2022-09-22T14:59:50.718Z,9.8
2022-09-22T15:01:52.425Z,10.2
2022-09-22T15:05:54.810Z,-25.8
2022-09-22T15:07:56.388Z,-25.9
2022-09-22T15:09:57.887Z,-25.9
2022-09-22T15:11:59.232Z,-25.4
2022-09-22T15:18:03.012Z,-25.6
2022-09-22T15:20:04.532Z,-25.8
2022-09-22T15:22:06.331Z,-25.8
2022-09-22T15:24:07.614Z,-25.9
2022-09-22T15:26:08.433Z,-25.8
2022-09-22T15:28:09.495Z,-25.8
2022-09-22T15:30:10.659Z,-26
2022-09-22T15:32:12.258Z,-26
2022-09-22T15:34:13.485Z,-25.3
2022-09-22T15:36:14.877Z,-25.9
2022-09-22T15:38:16.362Z,-25.6
2022-09-22T15:40:18.259Z,-25.8
2022-09-22T15:42:20.121Z,-25.6
2022-09-22T15:44:21.553Z,-25.7
2022-09-22T16:22:46.753Z,-25.9
2022-09-22T16:24:48.103Z,-26
2022-09-22T16:26:49.836Z,-26.1
2022-09-22T16:30:53.121Z,-26
2022-09-22T16:32:54.379Z,-25.7
2022-09-22T16:34:56.178Z,-25.9
2022-09-22T16:36:57.625Z,-25.9
2022-09-22T16:43:00.934Z,-25.7
2022-09-22T16:45:02.679Z,-25.8
2022-09-22T16:47:04.023Z,-25.9
2022-09-22T16:49:05.157Z,-25.8
2022-09-22T16:51:06.617Z,-25.8
2022-09-22T16:54:00.663Z,-25.9
2022-09-22T16:56:02.011Z,-25.7
2022-09-22T16:58:03.205Z,-26
2022-09-22T17:00:04.501Z,-25.7
2022-09-22T17:02:05.951Z,-25.8
2022-09-22T17:04:07.534Z,-25.7
2022-09-22T17:06:08.514Z,-25.7
2022-09-22T17:10:11.653Z,-26.1
2022-09-22T17:12:13.017Z,-26
2022-09-22T17:14:14.733Z,-25.7
2022-09-22T17:18:17.178Z,-26.2
2022-09-22T17:20:18.097Z,-25.9
2022-09-22T17:24:20.790Z,-25.7
2022-09-22T17:26:21.724Z,-25.6
2022-09-22T17:28:25.876Z,-25.9
2022-09-22T17:30:24.030Z,-25.8
2022-09-22T17:34:27.404Z,-26
2022-09-22T17:36:28.823Z,-25.6
2022-09-22T17:38:30.593Z,-25.9
2022-09-22T17:40:32.303Z,-26
2022-09-22T17:44:35.343Z,-26
2022-09-22T17:46:36.826Z,-26
2022-09-22T17:50:39.506Z,-25.7
2022-09-22T17:52:40.531Z,-25.8
2022-09-22T17:54:42.374Z,-25.9
2022-09-22T17:56:43.796Z,-25.9
2022-09-22T17:58:45.424Z,-25.7
2022-09-22T18:02:47.706Z,-25.9
2022-09-22T18:06:50.400Z,-25.8
2022-09-22T18:08:52.175Z,-25.8
2022-09-22T18:10:53.427Z,-25.8
2022-09-22T18:12:54.379Z,-26
2022-09-22T18:14:55.948Z,-25.8
2022-09-22T18:16:57.779Z,-26
2022-09-22T18:18:59.143Z,-25.8
2022-09-22T18:21:01.035Z,-26
2022-09-22T18:23:02.343Z,-25.9
2022-09-22T18:25:03.785Z,-25.8
2022-09-22T18:27:05.333Z,-26
2022-09-22T18:29:06.932Z,-25.8
2022-09-22T18:31:08.223Z,-25.8
2022-09-22T18:33:09.857Z,-25.8
2022-09-22T18:35:11.011Z,-25.6
2022-09-22T18:37:12.737Z,-26
2022-09-22T18:39:14.210Z,-25.9
2022-09-22T18:41:17.952Z,-26.1
2022-09-22T18:43:16.471Z,-25.9
2022-09-22T18:45:18.264Z,-26
2022-09-22T18:49:21.112Z,-25.9
2022-09-22T18:51:22.096Z,-26
2022-09-22T18:53:23.349Z,-26
2022-09-22T18:57:26.137Z,-25.8
2022-09-22T18:59:27.743Z,-25.7
2022-09-22T19:01:28.871Z,-26.1
2022-09-22T19:03:30.849Z,-26.1
2022-09-22T19:05:32.584Z,-25.7
2022-09-22T19:07:36.612Z,-26
2022-09-22T19:09:34.831Z,-26.1
2022-09-22T19:11:36.338Z,-25.7
2022-09-22T19:13:38.079Z,-26.1
2022-09-22T19:15:40.053Z,-26.1
2022-09-22T19:17:40.936Z,-26
2022-09-22T19:19:42.481Z,-25.9
2022-09-22T19:21:43.473Z,-25.8
2022-09-22T19:23:45.398Z,-25.7
2022-09-22T19:25:46.783Z,-25.7
2022-09-22T19:31:50.231Z,-26
2022-09-22T19:33:51.890Z,-26.3
2022-09-22T19:35:53.234Z,-26.1
2022-09-22T19:37:54.759Z,-26.2
2022-09-22T19:39:55.857Z,-26.5
2022-09-22T19:41:57.793Z,-26
2022-09-22T19:43:58.948Z,-26
2022-09-22T19:46:00.861Z,-26.2
2022-09-22T19:48:02.709Z,-26.2
2022-09-22T19:50:03.764Z,-26.3
2022-09-22T19:52:04.919Z,-26
2022-09-22T19:54:06.591Z,-26.2
2022-09-22T20:00:10.759Z,-26.1
2022-09-22T20:02:12.134Z,-26.1
2022-09-22T20:04:13.150Z,-26.1
2022-09-22T20:06:14.908Z,-26.2
2022-09-22T20:08:15.936Z,-25.9
2022-09-22T20:10:17.803Z,-26
2022-09-22T20:14:21.451Z,-25.9
2022-09-22T20:16:23.177Z,-25.9
2022-09-22T20:18:24.433Z,-26
2022-09-22T20:20:26.060Z,-25.9
2022-09-22T20:22:27.951Z,-25.7
2022-09-22T20:24:29.087Z,-26
2022-09-22T20:26:30.876Z,-26
2022-09-22T20:28:32.701Z,-26
2022-09-22T20:30:34.426Z,-25.6
2022-09-22T20:32:35.543Z,-25.8
2022-09-22T20:34:36.865Z,-26
2022-09-22T20:36:38.327Z,-26
2022-09-22T20:38:39.632Z,-26.1
2022-09-22T20:40:41.096Z,-25.7
2022-09-22T20:42:42.615Z,-26
2022-09-22T20:46:45.303Z,-25.8
2022-09-22T20:48:47.048Z,-25.8
2022-09-22T20:50:48.514Z,-25.8
2022-09-22T20:52:49.866Z,-25.7
2022-09-22T20:56:53.277Z,-26.1
2022-09-22T20:58:54.696Z,-25.9
2022-09-22T21:00:56.020Z,-25.9
2022-09-22T21:02:57.967Z,-25.8
2022-09-22T21:04:59.382Z,-25.9
2022-09-22T21:07:01.229Z,-26
2022-09-22T21:09:03.110Z,-25.7
2022-09-22T21:11:04.443Z,-25.9
2022-09-22T21:13:05.681Z,-25.8
2022-09-22T21:15:07.042Z,-25.8
2022-09-22T21:17:08.538Z,-25.7
2022-09-22T21:19:10.511Z,-25.7
2022-09-22T21:21:11.484Z,-25.7
2022-09-22T21:23:12.779Z,-25.7
2022-09-22T21:25:13.913Z,-25.5
2022-09-22T21:27:15.063Z,-25.6
2022-09-22T21:29:16.105Z,-25.5
2022-09-22T21:31:17.997Z,-25.6
2022-09-22T21:33:19.775Z,-25.8
2022-09-22T21:35:21.556Z,-25.7
2022-09-22T21:39:24.686Z,-25.5
2022-09-22T21:41:26.298Z,-25.8
2022-09-22T21:45:29.687Z,-25.7
2022-09-22T21:47:30.889Z,-25.7
2022-09-22T21:49:32.797Z,-25.7
2022-09-22T21:51:34.563Z,-25.5
2022-09-22T21:57:39.851Z,-25.7
2022-09-22T21:59:41.417Z,-25.9
2022-09-22T22:01:42.744Z,-25.7
2022-09-22T22:03:43.794Z,-25.5
2022-09-22T22:11:49.678Z,-25.5
2022-09-22T22:13:51.156Z,-25.7
2022-09-22T22:15:52.790Z,-25.7
2022-09-22T22:17:53.800Z,-25.6
2022-09-22T22:23:58.275Z,-25.6
2022-09-22T22:25:59.626Z,-25.4
2022-09-22T22:28:00.969Z,-25.4
2022-09-22T22:30:02.894Z,-25.7
2022-09-22T22:32:03.993Z,-25.8
2022-09-22T22:34:05.147Z,-25.5
2022-09-22T22:38:07.954Z,-25.7
2022-09-22T22:40:09.194Z,-25.5
2022-09-22T22:42:10.289Z,-25.7
2022-09-22T22:44:11.555Z,-25.5
2022-09-22T22:46:13.454Z,-25.6
2022-09-22T22:48:14.987Z,-25.5
2022-09-22T22:50:16.744Z,-25.5
2022-09-22T22:52:17.247Z,-25.4
2022-09-22T22:54:18.744Z,-25.7
2022-09-22T22:56:20.305Z,-25.8
2022-09-22T22:58:22.092Z,-25.6
2022-09-22T23:00:23.906Z,-25.7
2022-09-22T23:02:25.898Z,-25.8
2022-09-22T23:06:29.195Z,-25.6
2022-09-22T23:10:32.062Z,-25.6
2022-09-22T23:12:33.255Z,-25.6
2022-09-22T23:16:36.225Z,-25.4
2022-09-22T23:18:37.405Z,-25.6
2022-09-22T23:20:38.705Z,-25.7
2022-09-22T23:22:40.244Z,-25.5
2022-09-22T23:24:41.657Z,-25.6
2022-09-22T23:26:42.996Z,-25.9
2022-09-22T23:28:44.452Z,-25.7
2022-09-22T23:30:46.359Z,-25.4
2022-09-22T23:32:48.186Z,-25.6
2022-09-22T23:34:50.083Z,-25.7
2022-09-22T23:36:51.426Z,-25.4
2022-09-22T23:37:35.338Z,-25.9
2022-09-22T23:39:36.983Z,-25.5
2022-09-22T23:41:38.395Z,-25.5
2022-09-22T23:43:40.157Z,-25.6
2022-09-22T23:45:41.429Z,-25.6
2022-09-22T23:47:42.773Z,-25.9
2022-09-22T23:49:44.056Z,-25.6
2022-09-22T23:51:45.166Z,-25.7
2022-09-22T23:53:46.270Z,-25.6
2022-09-22T23:55:48.260Z,-25.6
2022-09-22T23:57:49.603Z,-25.6
2022-09-22T23:59:50.727Z,-25.6
